SVW451 EDDP-LEMD
Flight info
| Callsign | SVW451 |
|---|---|
| Flight time | 2h 22m |
| Altitude | 38000 |
| Route | NEVKO2S/26L NEVKO Q243 BAMKI Z94 KOMIB DCT TEDGO/N0441F370 N869 NATOR DCT LUTIX DCT BENOT DCT NEMOS DCT NINTU/N0423F330 DCT MEBAK/N0441F370 DCT REPSI DCT LERGA DCT MINSO DCT NARAK DCT AGN DCT MAQAB DCT TIVLI N869 ZAR Z245 TERSA |
| Aircraft | A319/M-SDE3FGHIRWY/LB1 |
Departure
| Time | 2026-05-06 16:30 |
|---|---|
| Airport | Leipzig/Halle Airport (EDDP) |
Arrival
| Time | 2026-05-06 18:52 |
|---|---|
| Airport | Adolfo Suárez Madrid–Barajas Airport (LEMD) |
| Time | Latitude | Longitude | Altitude | Speed | Heading |
|---|---|---|---|---|---|
| 2026-05-06 16:08 | 51.41940 | 12.21776 | 438 ft | 0 kts | 15° |
| 2026-05-06 16:20 | 51.41918 | 12.21767 | 439 ft | 4 kts | 15° |
| 2026-05-06 16:20 | 51.41893 | 12.21755 | 441 ft | 4 kts | 20° |
| 2026-05-06 16:20 | 51.41870 | 12.21737 | 425 ft | 4 kts | 44° |
| 2026-05-06 16:21 | 51.41861 | 12.21712 | 433 ft | 1 kts | 107° |
| 2026-05-06 16:21 | 51.41862 | 12.21704 | 433 ft | 2 kts | 107° |
| 2026-05-06 16:23 | 51.41859 | 12.21722 | 431 ft | 4 kts | 107° |
| 2026-05-06 16:23 | 51.41847 | 12.21784 | 431 ft | 8 kts | 107° |
| 2026-05-06 16:24 | 51.41828 | 12.21893 | 444 ft | 12 kts | 105° |
| 2026-05-06 16:24 | 51.41804 | 12.22038 | 447 ft | 14 kts | 105° |
| 2026-05-06 16:24 | 51.41776 | 12.22197 | 450 ft | 15 kts | 105° |
| 2026-05-06 16:24 | 51.41750 | 12.22350 | 453 ft | 13 kts | 105° |
| 2026-05-06 16:25 | 51.41725 | 12.22496 | 458 ft | 13 kts | 105° |
| 2026-05-06 16:25 | 51.41701 | 12.22637 | 461 ft | 13 kts | 105° |
| 2026-05-06 16:25 | 51.41676 | 12.22782 | 462 ft | 14 kts | 105° |
| 2026-05-06 16:25 | 51.41647 | 12.22953 | 461 ft | 17 kts | 105° |
| 2026-05-06 16:26 | 51.41614 | 12.23140 | 465 ft | 18 kts | 106° |
| 2026-05-06 16:26 | 51.41600 | 12.23346 | 463 ft | 20 kts | 86° |
| 2026-05-06 16:26 | 51.41610 | 12.23566 | 465 ft | 20 kts | 85° |
| 2026-05-06 16:26 | 51.41620 | 12.23776 | 469 ft | 19 kts | 86° |
| 2026-05-06 16:27 | 51.41630 | 12.23981 | 470 ft | 18 kts | 86° |
| 2026-05-06 16:27 | 51.41639 | 12.24178 | 475 ft | 17 kts | 85° |
| 2026-05-06 16:27 | 51.41648 | 12.24372 | 474 ft | 19 kts | 85° |
| 2026-05-06 16:27 | 51.41657 | 12.24562 | 475 ft | 16 kts | 85° |
| 2026-05-06 16:28 | 51.41650 | 12.24720 | 475 ft | 14 kts | 123° |
| 2026-05-06 16:28 | 51.41550 | 12.24732 | 472 ft | 17 kts | 193° |
| 2026-05-06 16:28 | 51.41431 | 12.24685 | 471 ft | 15 kts | 193° |
| 2026-05-06 16:28 | 51.41358 | 12.24622 | 473 ft | 11 kts | 243° |
| 2026-05-06 16:29 | 51.41353 | 12.24571 | 472 ft | 2 kts | 266° |
| 2026-05-06 16:29 | 51.41339 | 12.24272 | 472 ft | 70 kts | 265° |
| 2026-05-06 16:29 | 51.41282 | 12.23049 | 463 ft | 147 kts | 266° |
| 2026-05-06 16:29 | 51.41197 | 12.21203 | 858 ft | 169 kts | 268° |
| 2026-05-06 16:30 | 51.41109 | 12.19330 | 1653 ft | 167 kts | 268° |
| 2026-05-06 16:30 | 51.41050 | 12.18077 | 2037 ft | 176 kts | 265° |
| 2026-05-06 16:30 | 51.40915 | 12.15215 | 2544 ft | 208 kts | 265° |
| 2026-05-06 16:30 | 51.40798 | 12.12775 | 2946 ft | 232 kts | 264° |
| 2026-05-06 16:31 | 51.40667 | 12.10075 | 3409 ft | 251 kts | 264° |
| 2026-05-06 16:31 | 51.40530 | 12.07248 | 4127 ft | 257 kts | 264° |
| 2026-05-06 16:31 | 51.40390 | 12.04370 | 4915 ft | 260 kts | 264° |
| 2026-05-06 16:31 | 51.40251 | 12.01474 | 5717 ft | 262 kts | 264° |
| 2026-05-06 16:32 | 51.40107 | 11.98597 | 6464 ft | 264 kts | 262° |
| 2026-05-06 16:32 | 51.39664 | 11.95742 | 7168 ft | 265 kts | 247° |
| 2026-05-06 16:32 | 51.38756 | 11.93166 | 7866 ft | 268 kts | 232° |
| 2026-05-06 16:32 | 51.37433 | 11.91053 | 8572 ft | 271 kts | 217° |
| 2026-05-06 16:33 | 51.35819 | 11.89465 | 9266 ft | 274 kts | 211° |
| 2026-05-06 16:33 | 51.34158 | 11.87941 | 9905 ft | 278 kts | 211° |
| 2026-05-06 16:33 | 51.32423 | 11.86341 | 10048 ft | 298 kts | 211° |
| 2026-05-06 16:34 | 51.28709 | 11.82910 | 10822 ft | 308 kts | 211° |
| 2026-05-06 16:34 | 51.26919 | 11.81259 | 11972 ft | 286 kts | 211° |
| 2026-05-06 16:34 | 51.25277 | 11.79662 | 13121 ft | 270 kts | 215° |
| 2026-05-06 16:34 | 51.23791 | 11.77838 | 13938 ft | 273 kts | 219° |
| 2026-05-06 16:35 | 51.22237 | 11.75874 | 14299 ft | 297 kts | 218° |
| 2026-05-06 16:35 | 51.20549 | 11.73749 | 14575 ft | 321 kts | 218° |
| 2026-05-06 16:35 | 51.18730 | 11.71469 | 14799 ft | 345 kts | 218° |
| 2026-05-06 16:35 | 51.16776 | 11.69033 | 14965 ft | 367 kts | 218° |
| 2026-05-06 16:36 | 51.14726 | 11.66491 | 15454 ft | 378 kts | 218° |
| 2026-05-06 16:36 | 51.12635 | 11.63901 | 16131 ft | 383 kts | 218° |
| 2026-05-06 16:36 | 51.10520 | 11.61277 | 16871 ft | 387 kts | 218° |
| 2026-05-06 16:36 | 51.08384 | 11.58626 | 17573 ft | 391 kts | 218° |
| 2026-05-06 16:37 | 51.06230 | 11.55957 | 18237 ft | 395 kts | 218° |
| 2026-05-06 16:37 | 51.04051 | 11.53257 | 18818 ft | 398 kts | 218° |
| 2026-05-06 16:37 | 51.01860 | 11.50548 | 19388 ft | 402 kts | 218° |
| 2026-05-06 16:37 | 50.99641 | 11.47805 | 19947 ft | 405 kts | 218° |
| 2026-05-06 16:38 | 50.97438 | 11.45082 | 20477 ft | 409 kts | 218° |
| 2026-05-06 16:38 | 50.95182 | 11.42294 | 21007 ft | 412 kts | 218° |
| 2026-05-06 16:38 | 50.92909 | 11.39498 | 21542 ft | 416 kts | 218° |
| 2026-05-06 16:38 | 50.90609 | 11.36684 | 22042 ft | 419 kts | 218° |
| 2026-05-06 16:39 | 50.88293 | 11.33853 | 22558 ft | 423 kts | 218° |
| 2026-05-06 16:39 | 50.86040 | 11.30845 | 23061 ft | 425 kts | 225° |
| 2026-05-06 16:39 | 50.84092 | 11.27309 | 23514 ft | 428 kts | 233° |
| 2026-05-06 16:39 | 50.82291 | 11.23548 | 23962 ft | 430 kts | 233° |
| 2026-05-06 16:40 | 50.80471 | 11.19779 | 24407 ft | 432 kts | 232° |
| 2026-05-06 16:40 | 50.78634 | 11.16002 | 24833 ft | 434 kts | 232° |
| 2026-05-06 16:40 | 50.76792 | 11.12231 | 25249 ft | 435 kts | 231° |
| 2026-05-06 16:40 | 50.74938 | 11.08437 | 25677 ft | 437 kts | 231° |
| 2026-05-06 16:41 | 50.73061 | 11.04660 | 26091 ft | 438 kts | 229° |
| 2026-05-06 16:41 | 50.70913 | 11.01241 | 26496 ft | 439 kts | 220° |
| 2026-05-06 16:41 | 50.68470 | 10.98346 | 26898 ft | 440 kts | 214° |
| 2026-05-06 16:41 | 50.65945 | 10.95590 | 27286 ft | 441 kts | 214° |
| 2026-05-06 16:42 | 50.63423 | 10.92836 | 27671 ft | 443 kts | 214° |
| 2026-05-06 16:42 | 50.60896 | 10.90068 | 28187 ft | 441 kts | 214° |
| 2026-05-06 16:42 | 50.58383 | 10.87313 | 28789 ft | 438 kts | 214° |
| 2026-05-06 16:42 | 50.55891 | 10.84587 | 29410 ft | 435 kts | 214° |
| 2026-05-06 16:43 | 50.53416 | 10.81884 | 30011 ft | 432 kts | 214° |
| 2026-05-06 16:43 | 50.50957 | 10.79200 | 30531 ft | 429 kts | 214° |
| 2026-05-06 16:43 | 50.48515 | 10.76540 | 31016 ft | 427 kts | 214° |
| 2026-05-06 16:43 | 50.46078 | 10.73896 | 31499 ft | 425 kts | 215° |
| 2026-05-06 16:44 | 50.43645 | 10.71258 | 31994 ft | 424 kts | 215° |
| 2026-05-06 16:44 | 50.41222 | 10.68632 | 32489 ft | 422 kts | 215° |
| 2026-05-06 16:44 | 50.38808 | 10.66012 | 32912 ft | 423 kts | 215° |
| 2026-05-06 16:44 | 50.36390 | 10.63394 | 33375 ft | 422 kts | 215° |
| 2026-05-06 16:45 | 50.33980 | 10.60792 | 33875 ft | 420 kts | 215° |
| 2026-05-06 16:45 | 50.31571 | 10.58195 | 34255 ft | 419 kts | 215° |
| 2026-05-06 16:45 | 50.29166 | 10.55611 | 34619 ft | 420 kts | 215° |
| 2026-05-06 16:45 | 50.26749 | 10.53014 | 34941 ft | 421 kts | 215° |
| 2026-05-06 16:46 | 50.24331 | 10.50419 | 35255 ft | 422 kts | 215° |
| 2026-05-06 16:46 | 50.22004 | 10.47625 | 35558 ft | 423 kts | 222° |
| 2026-05-06 16:46 | 50.20619 | 10.45486 | 35751 ft | 424 kts | 225° |
| 2026-05-06 16:46 | 50.18562 | 10.42173 | 36053 ft | 425 kts | 225° |
| 2026-05-06 16:47 | 50.16498 | 10.38865 | 36399 ft | 424 kts | 225° |
| 2026-05-06 16:47 | 50.14441 | 10.35578 | 36762 ft | 423 kts | 225° |
| 2026-05-06 16:47 | 50.12383 | 10.32299 | 37068 ft | 424 kts | 225° |
| 2026-05-06 16:47 | 50.10317 | 10.29014 | 37343 ft | 425 kts | 225° |
| 2026-05-06 16:48 | 50.08169 | 10.25853 | 37601 ft | 426 kts | 219° |
| 2026-05-06 16:48 | 50.05723 | 10.23252 | 37761 ft | 428 kts | 210° |
| 2026-05-06 16:48 | 50.03061 | 10.21273 | 37785 ft | 429 kts | 205° |
| 2026-05-06 16:49 | 49.97603 | 10.17501 | 37783 ft | 429 kts | 205° |
| 2026-05-06 16:49 | 49.92179 | 10.13743 | 37785 ft | 425 kts | 205° |
| 2026-05-06 16:50 | 49.86798 | 10.09995 | 37789 ft | 424 kts | 205° |
| 2026-05-06 16:50 | 49.81411 | 10.06257 | 37792 ft | 424 kts | 205° |
| 2026-05-06 16:51 | 49.76018 | 10.02549 | 37791 ft | 424 kts | 205° |
| 2026-05-06 16:51 | 49.70631 | 9.98844 | 37806 ft | 424 kts | 205° |
| 2026-05-06 16:52 | 49.65243 | 9.95155 | 37810 ft | 423 kts | 205° |
| 2026-05-06 16:52 | 49.59849 | 9.91478 | 37816 ft | 424 kts | 205° |
| 2026-05-06 16:53 | 49.54430 | 9.87781 | 37792 ft | 426 kts | 205° |
| 2026-05-06 16:53 | 49.48998 | 9.84082 | 37805 ft | 428 kts | 205° |
| 2026-05-06 16:54 | 49.43557 | 9.80378 | 37811 ft | 428 kts | 205° |
| 2026-05-06 16:54 | 49.38105 | 9.76676 | 37821 ft | 428 kts | 205° |
| 2026-05-06 16:55 | 49.32649 | 9.72995 | 37813 ft | 428 kts | 204° |
| 2026-05-06 16:55 | 49.27204 | 9.69329 | 37833 ft | 427 kts | 205° |
| 2026-05-06 16:56 | 49.21768 | 9.65666 | 37826 ft | 426 kts | 204° |
| 2026-05-06 16:56 | 49.16338 | 9.62026 | 37826 ft | 426 kts | 204° |
| 2026-05-06 16:57 | 49.10904 | 9.58392 | 37818 ft | 426 kts | 204° |
| 2026-05-06 16:57 | 49.05473 | 9.54759 | 37825 ft | 426 kts | 204° |
| 2026-05-06 16:58 | 49.00073 | 9.51156 | 37834 ft | 427 kts | 204° |
| 2026-05-06 16:58 | 48.94639 | 9.47537 | 37842 ft | 426 kts | 204° |
| 2026-05-06 16:59 | 48.89195 | 9.43930 | 37840 ft | 427 kts | 204° |
| 2026-05-06 16:59 | 48.83744 | 9.40333 | 37847 ft | 427 kts | 204° |
| 2026-05-06 17:00 | 48.78291 | 9.36738 | 37844 ft | 427 kts | 204° |
| 2026-05-06 17:00 | 48.72841 | 9.33135 | 37846 ft | 427 kts | 204° |
| 2026-05-06 17:00 | 48.70114 | 9.31335 | 37576 ft | 427 kts | 204° |
| 2026-05-06 17:01 | 48.67401 | 9.29551 | 37777 ft | 424 kts | 204° |
| 2026-05-06 17:01 | 48.62264 | 9.25160 | 37848 ft | 427 kts | 219° |
| 2026-05-06 17:02 | 48.58333 | 9.18469 | 37857 ft | 428 kts | 233° |
| 2026-05-06 17:02 | 48.54887 | 9.11126 | 37876 ft | 428 kts | 233° |
| 2026-05-06 17:03 | 48.51399 | 9.03758 | 37882 ft | 429 kts | 232° |
| 2026-05-06 17:03 | 48.47918 | 8.96432 | 37870 ft | 429 kts | 232° |
| 2026-05-06 17:04 | 48.44437 | 8.89128 | 37876 ft | 429 kts | 232° |
| 2026-05-06 17:04 | 48.40955 | 8.81830 | 37872 ft | 429 kts | 232° |
| 2026-05-06 17:05 | 48.37473 | 8.74531 | 37881 ft | 429 kts | 232° |
| 2026-05-06 17:05 | 48.33985 | 8.67246 | 37880 ft | 429 kts | 232° |
| 2026-05-06 17:06 | 48.30477 | 8.59976 | 37889 ft | 430 kts | 232° |
| 2026-05-06 17:06 | 48.26988 | 8.52756 | 37885 ft | 430 kts | 232° |
| 2026-05-06 17:07 | 48.23468 | 8.45480 | 37887 ft | 431 kts | 232° |
| 2026-05-06 17:07 | 48.19946 | 8.38204 | 37883 ft | 431 kts | 232° |
| 2026-05-06 17:08 | 48.16031 | 8.31445 | 37894 ft | 429 kts | 219° |
| 2026-05-06 17:08 | 48.11103 | 8.26451 | 37889 ft | 428 kts | 212° |
| 2026-05-06 17:09 | 48.06094 | 8.21633 | 37895 ft | 428 kts | 212° |
| 2026-05-06 17:09 | 48.01079 | 8.16781 | 37894 ft | 429 kts | 212° |
| 2026-05-06 17:10 | 47.96157 | 8.12038 | 37900 ft | 429 kts | 212° |
| 2026-05-06 17:10 | 47.91133 | 8.07234 | 37896 ft | 429 kts | 212° |
| 2026-05-06 17:11 | 47.86101 | 8.02433 | 37897 ft | 429 kts | 212° |
| 2026-05-06 17:11 | 47.81073 | 7.97639 | 37899 ft | 430 kts | 212° |
| 2026-05-06 17:12 | 47.76032 | 7.92847 | 37911 ft | 430 kts | 212° |
| 2026-05-06 17:12 | 47.70991 | 7.88069 | 37902 ft | 430 kts | 212° |
| 2026-05-06 17:13 | 47.65947 | 7.83299 | 37911 ft | 430 kts | 212° |
| 2026-05-06 17:13 | 47.60933 | 7.78549 | 37911 ft | 430 kts | 212° |
| 2026-05-06 17:14 | 47.55884 | 7.73783 | 37915 ft | 430 kts | 212° |
| 2026-05-06 17:14 | 47.50835 | 7.69044 | 37903 ft | 429 kts | 212° |
| 2026-05-06 17:15 | 47.45803 | 7.64322 | 37911 ft | 429 kts | 212° |
| 2026-05-06 17:15 | 47.40754 | 7.59600 | 37908 ft | 429 kts | 212° |
| 2026-05-06 17:16 | 47.35708 | 7.54891 | 37913 ft | 429 kts | 212° |
| 2026-05-06 17:16 | 47.30669 | 7.50200 | 37913 ft | 428 kts | 213° |
| 2026-05-06 17:17 | 47.25626 | 7.45518 | 37959 ft | 428 kts | 212° |
| 2026-05-06 17:17 | 47.20588 | 7.40852 | 37945 ft | 428 kts | 212° |
| 2026-05-06 17:18 | 47.15845 | 7.35632 | 37945 ft | 427 kts | 225° |
| 2026-05-06 17:18 | 47.12076 | 7.28889 | 37939 ft | 427 kts | 231° |
| 2026-05-06 17:19 | 47.08378 | 7.22077 | 37926 ft | 426 kts | 230° |
| 2026-05-06 17:19 | 47.04692 | 7.15303 | 37922 ft | 426 kts | 230° |
| 2026-05-06 17:20 | 47.00975 | 7.08491 | 37935 ft | 426 kts | 230° |
| 2026-05-06 17:20 | 46.97269 | 7.01712 | 37932 ft | 426 kts | 230° |
| 2026-05-06 17:21 | 46.93562 | 6.94949 | 37952 ft | 426 kts | 230° |
| 2026-05-06 17:21 | 46.89864 | 6.88229 | 37937 ft | 427 kts | 230° |
| 2026-05-06 17:22 | 46.86130 | 6.81486 | 37924 ft | 427 kts | 230° |
| 2026-05-06 17:22 | 46.82393 | 6.74732 | 37931 ft | 427 kts | 230° |
| 2026-05-06 17:23 | 46.78645 | 6.67988 | 37925 ft | 428 kts | 230° |
| 2026-05-06 17:23 | 46.74885 | 6.61251 | 37909 ft | 427 kts | 230° |
| 2026-05-06 17:24 | 46.71147 | 6.54538 | 37898 ft | 427 kts | 230° |
| 2026-05-06 17:24 | 46.67396 | 6.47817 | 37920 ft | 428 kts | 230° |
| 2026-05-06 17:25 | 46.63617 | 6.41074 | 37910 ft | 430 kts | 230° |
| 2026-05-06 17:25 | 46.59842 | 6.34366 | 37910 ft | 431 kts | 230° |
| 2026-05-06 17:26 | 46.56037 | 6.27618 | 37915 ft | 432 kts | 230° |
| 2026-05-06 17:26 | 46.52226 | 6.20865 | 37915 ft | 432 kts | 230° |
| 2026-05-06 17:27 | 46.48409 | 6.14101 | 37921 ft | 433 kts | 230° |
| 2026-05-06 17:27 | 46.44590 | 6.07359 | 37927 ft | 433 kts | 230° |
| 2026-05-06 17:28 | 46.40757 | 6.00628 | 37934 ft | 433 kts | 230° |
| 2026-05-06 17:28 | 46.36916 | 5.93902 | 37931 ft | 433 kts | 230° |
| 2026-05-06 17:29 | 46.33073 | 5.87183 | 37932 ft | 433 kts | 230° |
| 2026-05-06 17:29 | 46.29887 | 5.81615 | 37933 ft | 434 kts | 230° |
| 2026-05-06 17:30 | 46.26035 | 5.74887 | 37931 ft | 434 kts | 230° |
| 2026-05-06 17:30 | 46.22175 | 5.68191 | 37928 ft | 434 kts | 230° |
| 2026-05-06 17:31 | 46.18313 | 5.61512 | 37941 ft | 433 kts | 230° |
| 2026-05-06 17:31 | 46.14489 | 5.54804 | 37933 ft | 433 kts | 234° |
| 2026-05-06 17:32 | 46.11061 | 5.47651 | 37921 ft | 434 kts | 235° |
| 2026-05-06 17:32 | 46.07629 | 5.40492 | 37918 ft | 434 kts | 235° |
| 2026-05-06 17:33 | 46.04185 | 5.33341 | 37910 ft | 435 kts | 234° |
| 2026-05-06 17:33 | 46.00739 | 5.26195 | 37918 ft | 435 kts | 234° |
| 2026-05-06 17:34 | 45.97288 | 5.19053 | 37923 ft | 435 kts | 234° |
| 2026-05-06 17:34 | 45.93832 | 5.11920 | 37929 ft | 435 kts | 234° |
| 2026-05-06 17:35 | 45.90355 | 5.04769 | 37918 ft | 437 kts | 234° |
| 2026-05-06 17:35 | 45.86867 | 4.97614 | 37916 ft | 437 kts | 234° |
| 2026-05-06 17:36 | 45.81644 | 4.86932 | 37922 ft | 438 kts | 234° |
| 2026-05-06 17:36 | 45.78144 | 4.79792 | 37926 ft | 438 kts | 234° |
| 2026-05-06 17:37 | 45.74638 | 4.72659 | 37928 ft | 438 kts | 234° |
| 2026-05-06 17:37 | 45.71122 | 4.65523 | 37930 ft | 439 kts | 234° |
| 2026-05-06 17:38 | 45.67594 | 4.58397 | 37916 ft | 439 kts | 235° |
| 2026-05-06 17:38 | 45.64059 | 4.51256 | 37926 ft | 440 kts | 234° |
| 2026-05-06 17:39 | 45.60524 | 4.44131 | 37932 ft | 440 kts | 234° |
| 2026-05-06 17:39 | 45.56980 | 4.37012 | 37936 ft | 440 kts | 234° |
| 2026-05-06 17:40 | 45.53427 | 4.29895 | 37936 ft | 440 kts | 234° |
| 2026-05-06 17:40 | 45.49877 | 4.22796 | 37929 ft | 440 kts | 234° |
| 2026-05-06 17:41 | 45.46322 | 4.15710 | 37934 ft | 440 kts | 234° |
| 2026-05-06 17:41 | 45.42759 | 4.08632 | 37934 ft | 440 kts | 234° |
| 2026-05-06 17:42 | 45.39193 | 4.01550 | 37934 ft | 439 kts | 234° |
| 2026-05-06 17:42 | 45.35627 | 3.94487 | 37933 ft | 440 kts | 234° |
| 2026-05-06 17:43 | 45.32048 | 3.87440 | 37932 ft | 439 kts | 234° |
| 2026-05-06 17:43 | 45.28496 | 3.80456 | 37927 ft | 439 kts | 234° |
| 2026-05-06 17:44 | 45.24917 | 3.73436 | 37926 ft | 439 kts | 234° |
| 2026-05-06 17:44 | 45.21406 | 3.66352 | 37927 ft | 439 kts | 236° |
| 2026-05-06 17:45 | 45.17941 | 3.59229 | 37924 ft | 439 kts | 236° |
| 2026-05-06 17:45 | 45.14462 | 3.52129 | 37929 ft | 439 kts | 235° |
| 2026-05-06 17:46 | 45.10958 | 3.45050 | 37933 ft | 438 kts | 235° |
| 2026-05-06 17:46 | 45.07446 | 3.38006 | 37942 ft | 438 kts | 235° |
| 2026-05-06 17:47 | 45.03938 | 3.30984 | 37943 ft | 437 kts | 235° |
| 2026-05-06 17:47 | 45.00431 | 3.23949 | 37947 ft | 437 kts | 235° |
| 2026-05-06 17:48 | 44.96923 | 3.16928 | 37947 ft | 437 kts | 235° |
| 2026-05-06 17:48 | 44.93410 | 3.09924 | 37943 ft | 437 kts | 235° |
| 2026-05-06 17:49 | 44.89891 | 3.02939 | 37959 ft | 436 kts | 235° |
| 2026-05-06 17:49 | 44.86366 | 2.95961 | 37949 ft | 437 kts | 235° |
| 2026-05-06 17:50 | 44.82888 | 2.88944 | 37948 ft | 437 kts | 237° |
| 2026-05-06 17:50 | 44.79593 | 2.81745 | 37954 ft | 437 kts | 238° |
| 2026-05-06 17:51 | 44.76342 | 2.74510 | 37952 ft | 437 kts | 238° |
| 2026-05-06 17:51 | 44.73057 | 2.67316 | 37954 ft | 437 kts | 237° |
| 2026-05-06 17:52 | 44.69729 | 2.60151 | 37944 ft | 438 kts | 237° |
| 2026-05-06 17:52 | 44.66385 | 2.52989 | 37940 ft | 439 kts | 237° |
| 2026-05-06 17:53 | 44.63037 | 2.45813 | 37954 ft | 439 kts | 237° |
| 2026-05-06 17:53 | 44.59687 | 2.38640 | 37958 ft | 440 kts | 237° |
| 2026-05-06 17:54 | 44.56327 | 2.31465 | 37969 ft | 439 kts | 237° |
| 2026-05-06 17:54 | 44.52965 | 2.24306 | 37982 ft | 439 kts | 237° |
| 2026-05-06 17:55 | 44.49594 | 2.17163 | 37970 ft | 439 kts | 237° |
| 2026-05-06 17:55 | 44.46229 | 2.10028 | 37962 ft | 439 kts | 237° |
| 2026-05-06 17:56 | 44.42856 | 2.02893 | 37955 ft | 439 kts | 237° |
| 2026-05-06 17:56 | 44.39478 | 1.95772 | 37940 ft | 439 kts | 237° |
| 2026-05-06 17:57 | 44.36099 | 1.88665 | 37961 ft | 439 kts | 237° |
| 2026-05-06 17:57 | 44.32717 | 1.81555 | 37962 ft | 439 kts | 237° |
| 2026-05-06 17:58 | 44.29316 | 1.74447 | 37961 ft | 440 kts | 237° |
| 2026-05-06 17:58 | 44.25955 | 1.67246 | 37964 ft | 440 kts | 238° |
| 2026-05-06 17:59 | 44.22705 | 1.60087 | 37968 ft | 439 kts | 238° |
| 2026-05-06 17:59 | 44.19429 | 1.52905 | 37960 ft | 438 kts | 238° |
| 2026-05-06 18:00 | 44.16112 | 1.45714 | 37965 ft | 438 kts | 238° |
| 2026-05-06 18:00 | 44.12800 | 1.38585 | 37967 ft | 438 kts | 238° |
| 2026-05-06 18:01 | 44.09486 | 1.31456 | 37969 ft | 438 kts | 238° |
| 2026-05-06 18:01 | 44.06177 | 1.24325 | 37968 ft | 438 kts | 238° |
| 2026-05-06 18:02 | 44.02858 | 1.17210 | 37975 ft | 439 kts | 238° |
| 2026-05-06 18:02 | 43.99531 | 1.10103 | 37979 ft | 438 kts | 238° |
| 2026-05-06 18:03 | 43.96204 | 1.03014 | 37993 ft | 438 kts | 238° |
| 2026-05-06 18:03 | 43.92876 | 0.95938 | 37989 ft | 438 kts | 238° |
| 2026-05-06 18:04 | 43.89514 | 0.88885 | 37998 ft | 438 kts | 234° |
| 2026-05-06 18:04 | 43.85973 | 0.83779 | 37996 ft | 441 kts | 223° |
| 2026-05-06 18:05 | 43.80656 | 0.77228 | 37991 ft | 441 kts | 224° |
| 2026-05-06 18:05 | 43.76087 | 0.71577 | 38000 ft | 440 kts | 224° |
| 2026-05-06 18:06 | 43.71523 | 0.65940 | 38000 ft | 440 kts | 224° |
| 2026-05-06 18:06 | 43.67700 | 0.61229 | 38000 ft | 439 kts | 224° |
| 2026-05-06 18:07 | 43.63120 | 0.55625 | 38003 ft | 439 kts | 224° |
| 2026-05-06 18:07 | 43.58551 | 0.50034 | 38003 ft | 438 kts | 224° |
| 2026-05-06 18:08 | 43.53989 | 0.44458 | 38008 ft | 438 kts | 224° |
| 2026-05-06 18:08 | 43.49453 | 0.38937 | 38014 ft | 437 kts | 224° |
| 2026-05-06 18:09 | 43.44887 | 0.33392 | 38003 ft | 438 kts | 224° |
| 2026-05-06 18:09 | 43.40313 | 0.27844 | 38019 ft | 438 kts | 224° |
| 2026-05-06 18:10 | 43.35976 | 0.22588 | 38018 ft | 438 kts | 223° |
| 2026-05-06 18:10 | 43.31403 | 0.17061 | 38018 ft | 438 kts | 223° |
| 2026-05-06 18:11 | 43.26827 | 0.11550 | 38031 ft | 438 kts | 223° |
| 2026-05-06 18:11 | 43.22248 | 0.06043 | 38011 ft | 437 kts | 223° |
| 2026-05-06 18:12 | 43.17674 | 0.00553 | 38022 ft | 437 kts | 223° |
| 2026-05-06 18:12 | 43.13103 | -0.04928 | 38044 ft | 437 kts | 223° |
| 2026-05-06 18:13 | 43.08518 | -0.10409 | 38043 ft | 437 kts | 223° |
| 2026-05-06 18:13 | 43.03928 | -0.15886 | 38041 ft | 438 kts | 223° |
| 2026-05-06 18:14 | 42.99340 | -0.21345 | 38025 ft | 437 kts | 223° |
| 2026-05-06 18:14 | 42.94761 | -0.26792 | 38033 ft | 436 kts | 223° |
| 2026-05-06 18:15 | 42.90184 | -0.32213 | 38030 ft | 435 kts | 223° |
| 2026-05-06 18:15 | 42.85623 | -0.37603 | 38011 ft | 434 kts | 223° |
| 2026-05-06 18:16 | 42.80957 | -0.42827 | 38006 ft | 436 kts | 216° |
| 2026-05-06 18:16 | 42.75439 | -0.46342 | 37991 ft | 441 kts | 204° |
| 2026-05-06 18:17 | 42.69714 | -0.49339 | 37997 ft | 441 kts | 204° |
| 2026-05-06 18:17 | 42.63997 | -0.52339 | 37983 ft | 440 kts | 204° |
| 2026-05-06 18:18 | 42.58283 | -0.55352 | 37960 ft | 440 kts | 205° |
| 2026-05-06 18:18 | 42.52580 | -0.58339 | 37954 ft | 439 kts | 204° |
| 2026-05-06 18:19 | 42.46876 | -0.61310 | 37959 ft | 439 kts | 204° |
| 2026-05-06 18:19 | 42.44025 | -0.62798 | 37713 ft | 439 kts | 204° |
| 2026-05-06 18:19 | 42.41184 | -0.64284 | 37444 ft | 438 kts | 205° |
| 2026-05-06 18:20 | 42.38344 | -0.65768 | 37162 ft | 437 kts | 205° |
| 2026-05-06 18:20 | 42.35506 | -0.67246 | 36933 ft | 437 kts | 205° |
| 2026-05-06 18:20 | 42.29837 | -0.70194 | 36944 ft | 437 kts | 205° |
| 2026-05-06 18:21 | 42.24161 | -0.73137 | 36945 ft | 437 kts | 205° |
| 2026-05-06 18:21 | 42.18488 | -0.76073 | 36927 ft | 436 kts | 205° |
| 2026-05-06 18:22 | 42.12816 | -0.79008 | 36950 ft | 437 kts | 205° |
| 2026-05-06 18:22 | 42.07138 | -0.81941 | 36947 ft | 436 kts | 205° |
| 2026-05-06 18:23 | 42.01464 | -0.84855 | 36947 ft | 437 kts | 205° |
| 2026-05-06 18:23 | 41.95789 | -0.87757 | 36939 ft | 437 kts | 205° |
| 2026-05-06 18:24 | 41.90113 | -0.90664 | 36943 ft | 436 kts | 205° |
| 2026-05-06 18:24 | 41.84451 | -0.93587 | 36953 ft | 436 kts | 205° |
| 2026-05-06 18:25 | 41.78783 | -0.96489 | 36951 ft | 436 kts | 205° |
| 2026-05-06 18:25 | 41.73120 | -0.99371 | 36941 ft | 435 kts | 205° |
| 2026-05-06 18:26 | 41.67493 | -1.02331 | 36949 ft | 432 kts | 210° |
| 2026-05-06 18:26 | 41.62646 | -1.06877 | 36952 ft | 424 kts | 225° |
| 2026-05-06 18:27 | 41.58277 | -1.12172 | 36952 ft | 424 kts | 225° |
| 2026-05-06 18:27 | 41.53895 | -1.17447 | 36938 ft | 424 kts | 224° |
| 2026-05-06 18:28 | 41.49509 | -1.22721 | 36944 ft | 425 kts | 224° |
| 2026-05-06 18:28 | 41.45115 | -1.28005 | 36952 ft | 425 kts | 224° |
| 2026-05-06 18:29 | 41.40718 | -1.33275 | 36951 ft | 425 kts | 224° |
| 2026-05-06 18:29 | 41.36319 | -1.38533 | 36955 ft | 425 kts | 224° |
| 2026-05-06 18:30 | 41.31914 | -1.43791 | 36945 ft | 425 kts | 224° |
| 2026-05-06 18:30 | 41.27514 | -1.49036 | 36965 ft | 424 kts | 224° |
| 2026-05-06 18:31 | 41.23121 | -1.54269 | 36964 ft | 424 kts | 224° |
| 2026-05-06 18:31 | 41.18722 | -1.59495 | 36965 ft | 424 kts | 224° |
| 2026-05-06 18:32 | 41.14320 | -1.64714 | 36953 ft | 424 kts | 224° |
| 2026-05-06 18:32 | 41.09912 | -1.69927 | 36947 ft | 425 kts | 224° |
| 2026-05-06 18:33 | 41.05498 | -1.75138 | 36838 ft | 425 kts | 224° |
| 2026-05-06 18:33 | 41.03293 | -1.77735 | 36574 ft | 424 kts | 224° |
| 2026-05-06 18:33 | 41.01092 | -1.80327 | 36086 ft | 424 kts | 224° |
| 2026-05-06 18:34 | 40.98871 | -1.82943 | 35094 ft | 428 kts | 224° |
| 2026-05-06 18:34 | 40.96658 | -1.85543 | 34369 ft | 425 kts | 224° |
| 2026-05-06 18:34 | 40.94445 | -1.88140 | 33390 ft | 426 kts | 224° |
| 2026-05-06 18:34 | 40.92217 | -1.90751 | 32245 ft | 428 kts | 224° |
| 2026-05-06 18:35 | 40.89983 | -1.93371 | 30858 ft | 429 kts | 224° |
| 2026-05-06 18:35 | 40.87734 | -1.96007 | 28829 ft | 435 kts | 224° |
| 2026-05-06 18:35 | 40.85467 | -1.98662 | 27219 ft | 433 kts | 224° |
| 2026-05-06 18:35 | 40.83224 | -2.01282 | 26053 ft | 430 kts | 224° |
| 2026-05-06 18:36 | 40.80987 | -2.03892 | 24930 ft | 428 kts | 224° |
| 2026-05-06 18:36 | 40.78978 | -2.06729 | 24309 ft | 421 kts | 236° |
| 2026-05-06 18:36 | 40.77374 | -2.09983 | 24215 ft | 423 kts | 239° |
| 2026-05-06 18:36 | 40.75772 | -2.13231 | 24128 ft | 423 kts | 238° |
| 2026-05-06 18:37 | 40.74164 | -2.16473 | 24040 ft | 423 kts | 238° |
| 2026-05-06 18:37 | 40.73099 | -2.18621 | 23983 ft | 423 kts | 238° |
| 2026-05-06 18:37 | 40.70906 | -2.23064 | 23815 ft | 441 kts | 238° |
| 2026-05-06 18:37 | 40.69229 | -2.26471 | 23646 ft | 445 kts | 238° |
| 2026-05-06 18:38 | 40.67567 | -2.29851 | 23258 ft | 445 kts | 238° |
| 2026-05-06 18:38 | 40.65885 | -2.33270 | 22840 ft | 444 kts | 238° |
| 2026-05-06 18:38 | 40.64210 | -2.36673 | 22421 ft | 442 kts | 238° |
| 2026-05-06 18:38 | 40.62518 | -2.40105 | 22021 ft | 440 kts | 238° |
| 2026-05-06 18:39 | 40.60875 | -2.43436 | 21634 ft | 438 kts | 238° |
| 2026-05-06 18:39 | 40.59197 | -2.46840 | 21236 ft | 436 kts | 238° |
| 2026-05-06 18:39 | 40.57547 | -2.50181 | 20849 ft | 435 kts | 238° |
| 2026-05-06 18:40 | 40.54279 | -2.56769 | 20317 ft | 432 kts | 238° |
| 2026-05-06 18:40 | 40.52638 | -2.60074 | 19768 ft | 430 kts | 237° |
| 2026-05-06 18:40 | 40.51005 | -2.63354 | 18669 ft | 428 kts | 237° |
| 2026-05-06 18:40 | 40.49381 | -2.66614 | 17619 ft | 424 kts | 237° |
| 2026-05-06 18:41 | 40.47779 | -2.69830 | 16697 ft | 417 kts | 237° |
| 2026-05-06 18:41 | 40.46202 | -2.72994 | 15816 ft | 411 kts | 237° |
| 2026-05-06 18:41 | 40.44644 | -2.76117 | 14947 ft | 407 kts | 236° |
| 2026-05-06 18:41 | 40.43094 | -2.79222 | 14134 ft | 404 kts | 236° |
| 2026-05-06 18:42 | 40.41559 | -2.82294 | 13288 ft | 402 kts | 236° |
| 2026-05-06 18:42 | 40.40034 | -2.85338 | 12495 ft | 397 kts | 236° |
| 2026-05-06 18:42 | 40.38528 | -2.88340 | 11711 ft | 391 kts | 236° |
| 2026-05-06 18:42 | 40.37054 | -2.91280 | 11229 ft | 377 kts | 236° |
| 2026-05-06 18:43 | 40.35657 | -2.94064 | 11114 ft | 354 kts | 236° |
| 2026-05-06 18:43 | 40.34342 | -2.96683 | 10970 ft | 334 kts | 236° |
| 2026-05-06 18:43 | 40.33098 | -2.99159 | 10861 ft | 317 kts | 236° |
| 2026-05-06 18:43 | 40.31914 | -3.01518 | 10737 ft | 303 kts | 236° |
| 2026-05-06 18:44 | 40.30778 | -3.03779 | 10536 ft | 292 kts | 236° |
| 2026-05-06 18:44 | 40.29669 | -3.05983 | 10252 ft | 288 kts | 236° |
| 2026-05-06 18:44 | 40.28942 | -3.07425 | 10092 ft | 286 kts | 236° |
| 2026-05-06 18:44 | 40.27833 | -3.09621 | 9902 ft | 285 kts | 236° |
| 2026-05-06 18:45 | 40.26854 | -3.11834 | 9781 ft | 285 kts | 246° |
| 2026-05-06 18:45 | 40.26313 | -3.14322 | 9651 ft | 285 kts | 261° |
| 2026-05-06 18:45 | 40.26279 | -3.16911 | 9520 ft | 286 kts | 276° |
| 2026-05-06 18:45 | 40.26609 | -3.19474 | 9243 ft | 287 kts | 279° |
| 2026-05-06 18:46 | 40.26956 | -3.22077 | 8692 ft | 289 kts | 279° |
| 2026-05-06 18:46 | 40.27293 | -3.24642 | 8147 ft | 285 kts | 279° |
| 2026-05-06 18:46 | 40.27623 | -3.27191 | 7518 ft | 283 kts | 279° |
| 2026-05-06 18:46 | 40.27955 | -3.29747 | 6835 ft | 283 kts | 279° |
| 2026-05-06 18:47 | 40.28293 | -3.32211 | 6570 ft | 266 kts | 283° |
| 2026-05-06 18:47 | 40.28872 | -3.34449 | 6430 ft | 254 kts | 291° |
| 2026-05-06 18:47 | 40.29488 | -3.36557 | 6311 ft | 241 kts | 291° |
| 2026-05-06 18:47 | 40.30105 | -3.38549 | 6045 ft | 236 kts | 299° |
| 2026-05-06 18:48 | 40.31203 | -3.40126 | 5687 ft | 235 kts | 322° |
| 2026-05-06 18:48 | 40.32497 | -3.41424 | 5365 ft | 234 kts | 323° |
| 2026-05-06 18:48 | 40.33783 | -3.42713 | 5050 ft | 232 kts | 323° |
| 2026-05-06 18:48 | 40.35059 | -3.44000 | 4746 ft | 231 kts | 323° |
| 2026-05-06 18:49 | 40.36327 | -3.45281 | 4443 ft | 229 kts | 322° |
| 2026-05-06 18:49 | 40.37583 | -3.46551 | 4131 ft | 225 kts | 323° |
| 2026-05-06 18:49 | 40.38791 | -3.47773 | 3856 ft | 212 kts | 322° |
| 2026-05-06 18:49 | 40.39918 | -3.48913 | 3573 ft | 197 kts | 322° |
| 2026-05-06 18:50 | 40.40963 | -3.49971 | 3325 ft | 181 kts | 322° |
| 2026-05-06 18:50 | 40.41917 | -3.50938 | 3098 ft | 167 kts | 322° |
| 2026-05-06 18:50 | 40.42804 | -3.51838 | 2850 ft | 156 kts | 323° |
| 2026-05-06 18:50 | 40.43638 | -3.52688 | 2632 ft | 148 kts | 323° |
| 2026-05-06 18:51 | 40.44430 | -3.53485 | 2462 ft | 139 kts | 324° |
| 2026-05-06 18:51 | 40.45181 | -3.54247 | 2256 ft | 135 kts | 323° |
| 2026-05-06 18:51 | 40.45918 | -3.54989 | 2085 ft | 133 kts | 323° |
| 2026-05-06 18:51 | 40.46645 | -3.55729 | 1954 ft | 126 kts | 322° |
| 2026-05-06 18:52 | 40.47255 | -3.56340 | 1960 ft | 89 kts | 321° |
| 2026-05-06 18:52 | 40.47606 | -3.56700 | 1972 ft | 42 kts | 322° |
| 2026-05-06 18:52 | 40.47738 | -3.56884 | 1971 ft | 17 kts | 303° |
| 2026-05-06 18:52 | 40.47773 | -3.56968 | 1973 ft | 7 kts | 294° |
| 2026-05-06 18:53 | 40.47783 | -3.56998 | 1975 ft | 1 kts | 294° |
| 2026-05-06 18:53 | 40.47789 | -3.57015 | 1974 ft | 3 kts | 294° |
| 2026-05-06 18:53 | 40.47797 | -3.57038 | 1976 ft | 0 kts | 294° |
| 2026-05-06 18:54 | 40.47797 | -3.57039 | 1976 ft | 1 kts | 294° |
| 2026-05-06 18:54 | 40.47805 | -3.57065 | 1976 ft | 5 kts | 287° |
| 2026-05-06 18:54 | 40.47783 | -3.57117 | 1977 ft | 9 kts | 207° |
| 2026-05-06 18:54 | 40.47708 | -3.57078 | 1976 ft | 15 kts | 142° |
| 2026-05-06 18:55 | 40.47617 | -3.56987 | 1974 ft | 18 kts | 142° |
| 2026-05-06 18:55 | 40.47510 | -3.56876 | 1971 ft | 21 kts | 142° |
| 2026-05-06 18:55 | 40.47387 | -3.56752 | 1967 ft | 21 kts | 142° |
| 2026-05-06 18:55 | 40.47289 | -3.56651 | 1965 ft | 16 kts | 141° |
| 2026-05-06 18:56 | 40.47211 | -3.56570 | 1963 ft | 14 kts | 142° |
| 2026-05-06 18:56 | 40.47133 | -3.56497 | 1961 ft | 14 kts | 152° |
| 2026-05-06 18:56 | 40.47037 | -3.56454 | 1959 ft | 15 kts | 169° |
| 2026-05-06 18:56 | 40.46931 | -3.56449 | 1961 ft | 16 kts | 184° |
| 2026-05-06 18:57 | 40.46820 | -3.56457 | 1956 ft | 16 kts | 181° |
| 2026-05-06 18:57 | 40.46709 | -3.56467 | 1954 ft | 17 kts | 183° |
| 2026-05-06 18:57 | 40.46586 | -3.56474 | 1952 ft | 18 kts | 182° |
| 2026-05-06 18:57 | 40.46464 | -3.56482 | 1950 ft | 17 kts | 184° |
| 2026-05-06 18:58 | 40.46346 | -3.56494 | 1949 ft | 17 kts | 185° |
| 2026-05-06 18:58 | 40.46233 | -3.56502 | 1947 ft | 16 kts | 183° |
| 2026-05-06 18:58 | 40.46128 | -3.56510 | 1945 ft | 15 kts | 184° |
| 2026-05-06 18:58 | 40.46022 | -3.56519 | 1944 ft | 15 kts | 184° |
| 2026-05-06 18:59 | 40.45920 | -3.56529 | 1942 ft | 14 kts | 184° |
| 2026-05-06 18:59 | 40.45881 | -3.56580 | 1942 ft | 8 kts | 269° |
| 2026-05-06 18:59 | 40.45882 | -3.56628 | 1942 ft | 4 kts | 270° |
| 2026-05-06 18:59 | 40.45882 | -3.56647 | 1942 ft | 0 kts | 270° |